Akron Canton Regional Airport Akron US
ICAO: KCAK
IATA: CAK
Category: Medium
Scheduled Services: Yes

Elevation: 1228 ft
TransAlt. 18000 ft.

Airport Communications:
APP/DEP:32.3
APP/DEP:118.6
ATIS:121.05
CLNC DEL:132.05
GND:121.7
ARNG OPS:41.1
CLEVELAND RDO:114.4
TWR:118.3
UNICOM:122.95

KCAK Zoom In..

If you have problems with the map follow the link
https://www.worldairports.se/pages/airport.php?
ICAO=KCAK

Runways:

(A) RW 01 length 7601 ft width 150 ft
ILS 109.50 / hdg 9

(B) RW 05 length 8204 ft width 150 ft
ILS 108.30 / hdg 54

(C) RW 19 length 7601 ft width 150 ft
ILS 109.50 / hdg 189

(D) RW 23 length 8204 ft width 150 ft
ILS 108.30 / hdg 234

Location; KCAK
Day. 12 / Time. 23.51 Zulu
* Altimeter: 30.35
* Temperature: 01° c. 33.8°f.
* Wind from: 160° Speed 09 kn.
Dewpoint: -06° c.
Visibility: 10 Statute Miles.
Clouds: Broken 22000 ft.

KCAK 122351Z 16009KT 10SM BKN220 01/M06 A3035 RMK AO2 SLP293 T00111056 10022 20006 56024


Wind From 160°
Speed 09 kn.

 
 
jpsmedia worldairports.se 2019   terms of use